sensor_id;sensor_type;location;lat;lon;timestamp;P1;durP1;ratioP1;P2;durP2;ratioP2
6642;SDS011;3357;48.050;7.800;2023-04-01T00:01:48;1.20;;;0.50;;
6642;SDS011;3357;48.050;7.800;2023-04-01T00:04:13;1.87;;;0.50;;
6642;SDS011;3357;48.050;7.800;2023-04-01T00:06:39;0.63;;;0.40;;
6642;SDS011;3357;48.050;7.800;2023-04-01T00:09:04;0.83;;;0.40;;
6642;SDS011;3357;48.050;7.800;2023-04-01T00:11:29;0.30;;;0.30;;
6642;SDS011;3357;48.050;7.800;2023-04-01T00:13:55;0.70;;;0.40;;
6642;SDS011;3357;48.050;7.800;2023-04-01T00:16:20;0.60;;;0.40;;
6642;SDS011;3357;48.050;7.800;2023-04-01T00:18:45;0.70;;;0.40;;
6642;SDS011;3357;48.050;7.800;2023-04-01T00:21:12;0.30;;;0.30;;
6642;SDS011;3357;48.050;7.800;2023-04-01T00:23:37;1.07;;;0.40;;
6642;SDS011;3357;48.050;7.800;2023-04-01T00:26:03;4.70;;;0.50;;
6642;SDS011;3357;48.050;7.800;2023-04-01T00:28:29;2.13;;;0.33;;
6642;SDS011;3357;48.050;7.800;2023-04-01T00:30:54;2.23;;;0.50;;
6642;SDS011;3357;48.050;7.800;2023-04-01T00:33:20;0.50;;;0.50;;
6642;SDS011;3357;48.050;7.800;2023-04-01T00:35:45;0.57;;;0.40;;
6642;SDS011;3357;48.050;7.800;2023-04-01T00:38:11;0.30;;;0.30;;
6642;SDS011;3357;48.050;7.800;2023-04-01T00:40:41;7.07;;;0.50;;
6642;SDS011;3357;48.050;7.800;2023-04-01T00:43:18;1.73;;;0.40;;
6642;SDS011;3357;48.050;7.800;2023-04-01T00:45:48;4.33;;;0.50;;
6642;SDS011;3357;48.050;7.800;2023-04-01T00:50:40;2.80;;;0.30;;
6642;SDS011;3357;48.050;7.800;2023-04-01T00:53:07;0.40;;;0.40;;
6642;SDS011;3357;48.050;7.800;2023-04-01T00:55:34;2.93;;;0.80;;
6642;SDS011;3357;48.050;7.800;2023-04-01T00:58:02;1.40;;;0.50;;
6642;SDS011;3357;48.050;7.800;2023-04-01T01:00:28;2.20;;;0.30;;
6642;SDS011;3357;48.050;7.800;2023-04-01T01:02:54;1.30;;;0.50;;
6642;SDS011;3357;48.050;7.800;2023-04-01T01:05:20;1.80;;;0.40;;
6642;SDS011;3357;48.050;7.800;2023-04-01T01:07:56;1.57;;;0.67;;
6642;SDS011;3357;48.050;7.800;2023-04-01T01:21:04;2.43;;;0.60;;
6642;SDS011;3357;48.050;7.800;2023-04-01T01:29:42;6.67;;;0.97;;
6642;SDS011;3357;48.050;7.800;2023-04-01T01:35:31;5.37;;;0.93;;
6642;SDS011;3357;48.050;7.800;2023-04-01T01:38:14;5.97;;;0.80;;
6642;SDS011;3357;48.050;7.800;2023-04-01T01:40:42;6.43;;;1.37;;
6642;SDS011;3357;48.050;7.800;2023-04-01T01:43:10;6.60;;;1.03;;
6642;SDS011;3357;48.050;7.800;2023-04-01T01:45:40;7.73;;;1.20;;
6642;SDS011;3357;48.050;7.800;2023-04-01T01:48:09;7.90;;;1.20;;
6642;SDS011;3357;48.050;7.800;2023-04-01T01:50:35;5.17;;;1.50;;
6642;SDS011;3357;48.050;7.800;2023-04-01T01:53:02;3.83;;;0.93;;
6642;SDS011;3357;48.050;7.800;2023-04-01T01:55:33;14.03;;;1.53;;
6642;SDS011;3357;48.050;7.800;2023-04-01T02:00:46;5.80;;;1.37;;
6642;SDS011;3357;48.050;7.800;2023-04-01T02:03:14;5.97;;;1.00;;
6642;SDS011;3357;48.050;7.800;2023-04-01T02:05:40;8.50;;;1.10;;
6642;SDS011;3357;48.050;7.800;2023-04-01T02:08:16;8.40;;;1.30;;
6642;SDS011;3357;48.050;7.800;2023-04-01T02:10:48;7.47;;;1.27;;
6642;SDS011;3357;48.050;7.800;2023-04-01T02:13:21;6.70;;;2.40;;
6642;SDS011;3357;48.050;7.800;2023-04-01T02:15:59;6.60;;;1.40;;
6642;SDS011;3357;48.050;7.800;2023-04-01T02:18:26;10.67;;;1.50;;
6642;SDS011;3357;48.050;7.800;2023-04-01T02:20:53;6.83;;;1.10;;
6642;SDS011;3357;48.050;7.800;2023-04-01T02:23:20;5.50;;;0.90;;
6642;SDS011;3357;48.050;7.800;2023-04-01T02:25:45;12.13;;;1.63;;
6642;SDS011;3357;48.050;7.800;2023-04-01T02:28:11;3.50;;;1.00;;
6642;SDS011;3357;48.050;7.800;2023-04-01T02:30:38;6.80;;;1.10;;
6642;SDS011;3357;48.050;7.800;2023-04-01T02:33:05;9.97;;;1.30;;
6642;SDS011;3357;48.050;7.800;2023-04-01T02:35:32;8.17;;;1.20;;
6642;SDS011;3357;48.050;7.800;2023-04-01T02:37:59;14.10;;;1.70;;
6642;SDS011;3357;48.050;7.800;2023-04-01T02:40:25;10.50;;;1.60;;
6642;SDS011;3357;48.050;7.800;2023-04-01T02:42:50;4.87;;;1.33;;
6642;SDS011;3357;48.050;7.800;2023-04-01T02:45:16;6.07;;;1.10;;
6642;SDS011;3357;48.050;7.800;2023-04-01T02:47:41;4.10;;;1.10;;
6642;SDS011;3357;48.050;7.800;2023-04-01T02:50:07;6.63;;;0.70;;
6642;SDS011;3357;48.050;7.800;2023-04-01T02:52:33;3.10;;;0.90;;
6642;SDS011;3357;48.050;7.800;2023-04-01T02:54:58;4.43;;;0.63;;
6642;SDS011;3357;48.050;7.800;2023-04-01T02:57:24;6.23;;;1.00;;
6642;SDS011;3357;48.050;7.800;2023-04-01T02:59:49;4.27;;;0.90;;
6642;SDS011;3357;48.050;7.800;2023-04-01T03:02:15;4.40;;;1.00;;
6642;SDS011;3357;48.050;7.800;2023-04-01T03:04:40;2.90;;;0.70;;
6642;SDS011;3357;48.050;7.800;2023-04-01T03:07:05;3.43;;;0.93;;
6642;SDS011;3357;48.050;7.800;2023-04-01T03:09:31;4.00;;;0.80;;
6642;SDS011;3357;48.050;7.800;2023-04-01T03:11:56;7.17;;;1.17;;
6642;SDS011;3357;48.050;7.800;2023-04-01T03:14:22;8.33;;;1.20;;
6642;SDS011;3357;48.050;7.800;2023-04-01T03:16:47;4.50;;;1.07;;
6642;SDS011;3357;48.050;7.800;2023-04-01T03:19:12;9.37;;;1.57;;
6642;SDS011;3357;48.050;7.800;2023-04-01T03:21:38;8.90;;;1.47;;
6642;SDS011;3357;48.050;7.800;2023-04-01T03:24:03;12.87;;;2.03;;
6642;SDS011;3357;48.050;7.800;2023-04-01T03:26:28;5.57;;;1.23;;
6642;SDS011;3357;48.050;7.800;2023-04-01T03:28:54;18.27;;;1.40;;
6642;SDS011;3357;48.050;7.800;2023-04-01T03:31:20;11.23;;;1.70;;
6642;SDS011;3357;48.050;7.800;2023-04-01T03:33:46;7.47;;;1.40;;
6642;SDS011;3357;48.050;7.800;2023-04-01T03:36:11;10.13;;;1.50;;
6642;SDS011;3357;48.050;7.800;2023-04-01T03:38:37;7.87;;;1.10;;
6642;SDS011;3357;48.050;7.800;2023-04-01T03:41:04;5.93;;;0.93;;
6642;SDS011;3357;48.050;7.800;2023-04-01T03:43:30;2.87;;;1.03;;
6642;SDS011;3357;48.050;7.800;2023-04-01T03:45:55;5.53;;;0.80;;
6642;SDS011;3357;48.050;7.800;2023-04-01T03:48:22;4.37;;;0.77;;
6642;SDS011;3357;48.050;7.800;2023-04-01T03:50:48;2.93;;;0.90;;
6642;SDS011;3357;48.050;7.800;2023-04-01T03:53:13;2.73;;;0.60;;
6642;SDS011;3357;48.050;7.800;2023-04-01T03:55:39;2.07;;;0.50;;
6642;SDS011;3357;48.050;7.800;2023-04-01T03:58:05;6.03;;;0.70;;
6642;SDS011;3357;48.050;7.800;2023-04-01T04:00:31;3.47;;;0.60;;
6642;SDS011;3357;48.050;7.800;2023-04-01T04:02:56;4.93;;;0.60;;
6642;SDS011;3357;48.050;7.800;2023-04-01T04:05:22;3.13;;;0.70;;
6642;SDS011;3357;48.050;7.800;2023-04-01T04:07:48;7.07;;;0.90;;
6642;SDS011;3357;48.050;7.800;2023-04-01T04:10:14;1.70;;;0.70;;
6642;SDS011;3357;48.050;7.800;2023-04-01T04:12:39;6.20;;;0.80;;
6642;SDS011;3357;48.050;7.800;2023-04-01T04:15:05;1.60;;;0.80;;
6642;SDS011;3357;48.050;7.800;2023-04-01T04:17:31;3.10;;;0.70;;
6642;SDS011;3357;48.050;7.800;2023-04-01T04:19:56;1.13;;;0.50;;
6642;SDS011;3357;48.050;7.800;2023-04-01T04:22:21;4.47;;;0.60;;
6642;SDS011;3357;48.050;7.800;2023-04-01T04:24:46;3.07;;;0.70;;
6642;SDS011;3357;48.050;7.800;2023-04-01T04:27:12;2.63;;;0.80;;
6642;SDS011;3357;48.050;7.800;2023-04-01T04:29:37;2.50;;;0.67;;
6642;SDS011;3357;48.050;7.800;2023-04-01T04:32:02;6.97;;;0.90;;
6642;SDS011;3357;48.050;7.800;2023-04-01T04:34:27;9.30;;;1.10;;
6642;SDS011;3357;48.050;7.800;2023-04-01T04:36:53;5.83;;;0.80;;
6642;SDS011;3357;48.050;7.800;2023-04-01T04:39:18;5.93;;;0.87;;
6642;SDS011;3357;48.050;7.800;2023-04-01T04:41:43;2.87;;;0.83;;
6642;SDS011;3357;48.050;7.800;2023-04-01T04:44:08;6.27;;;1.17;;
6642;SDS011;3357;48.050;7.800;2023-04-01T04:46:34;4.00;;;1.03;;
6642;SDS011;3357;48.050;7.800;2023-04-01T04:48:59;2.70;;;0.90;;
6642;SDS011;3357;48.050;7.800;2023-04-01T04:51:24;1.97;;;0.97;;
6642;SDS011;3357;48.050;7.800;2023-04-01T04:53:50;2.93;;;0.80;;
6642;SDS011;3357;48.050;7.800;2023-04-01T04:56:19;8.10;;;1.00;;
6642;SDS011;3357;48.050;7.800;2023-04-01T04:58:45;6.00;;;1.30;;
6642;SDS011;3357;48.050;7.800;2023-04-01T05:01:11;4.27;;;0.90;;
6642;SDS011;3357;48.050;7.800;2023-04-01T05:03:38;4.03;;;0.77;;
6642;SDS011;3357;48.050;7.800;2023-04-01T05:06:04;5.13;;;0.90;;
6642;SDS011;3357;48.050;7.800;2023-04-01T05:08:30;1.70;;;0.60;;
6642;SDS011;3357;48.050;7.800;2023-04-01T05:10:55;6.67;;;0.90;;
6642;SDS011;3357;48.050;7.800;2023-04-01T05:13:20;5.73;;;0.93;;
6642;SDS011;3357;48.050;7.800;2023-04-01T05:15:46;5.73;;;1.20;;
6642;SDS011;3357;48.050;7.800;2023-04-01T05:18:11;6.70;;;0.80;;
6642;SDS011;3357;48.050;7.800;2023-04-01T05:20:36;2.13;;;0.70;;
6642;SDS011;3357;48.050;7.800;2023-04-01T05:23:02;2.83;;;0.60;;
6642;SDS011;3357;48.050;7.800;2023-04-01T05:25:27;3.20;;;0.70;;
6642;SDS011;3357;48.050;7.800;2023-04-01T05:27:52;3.50;;;1.27;;
6642;SDS011;3357;48.050;7.800;2023-04-01T05:30:18;4.03;;;0.90;;
6642;SDS011;3357;48.050;7.800;2023-04-01T05:32:43;5.20;;;0.90;;
6642;SDS011;3357;48.050;7.800;2023-04-01T05:35:09;4.97;;;0.73;;
6642;SDS011;3357;48.050;7.800;2023-04-01T05:37:34;3.47;;;0.90;;
6642;SDS011;3357;48.050;7.800;2023-04-01T05:40:00;5.87;;;0.90;;
6642;SDS011;3357;48.050;7.800;2023-04-01T05:42:28;5.20;;;1.00;;
6642;SDS011;3357;48.050;7.800;2023-04-01T05:44:54;2.30;;;0.50;;
6642;SDS011;3357;48.050;7.800;2023-04-01T05:47:20;4.63;;;0.97;;
6642;SDS011;3357;48.050;7.800;2023-04-01T05:49:46;4.37;;;1.00;;
6642;SDS011;3357;48.050;7.800;2023-04-01T05:52:11;2.03;;;0.90;;
6642;SDS011;3357;48.050;7.800;2023-04-01T05:54:36;2.63;;;0.90;;
6642;SDS011;3357;48.050;7.800;2023-04-01T05:57:02;4.63;;;0.90;;
6642;SDS011;3357;48.050;7.800;2023-04-01T05:59:28;8.20;;;0.70;;
6642;SDS011;3357;48.050;7.800;2023-04-01T06:01:53;12.37;;;1.53;;
6642;SDS011;3357;48.050;7.800;2023-04-01T06:04:18;1.80;;;0.80;;
6642;SDS011;3357;48.050;7.800;2023-04-01T06:06:44;2.77;;;0.60;;
6642;SDS011;3357;48.050;7.800;2023-04-01T06:09:12;4.13;;;0.83;;
6642;SDS011;3357;48.050;7.800;2023-04-01T06:11:51;4.27;;;0.87;;
6642;SDS011;3357;48.050;7.800;2023-04-01T06:19:57;2.00;;;0.70;;
6642;SDS011;3357;48.050;7.800;2023-04-01T06:22:46;2.33;;;0.73;;
6642;SDS011;3357;48.050;7.800;2023-04-01T06:25:43;1.83;;;0.60;;
6642;SDS011;3357;48.050;7.800;2023-04-01T06:29:02;1.03;;;0.70;;
6642;SDS011;3357;48.050;7.800;2023-04-01T06:34:38;3.30;;;0.60;;
6642;SDS011;3357;48.050;7.800;2023-04-01T06:37:26;2.10;;;0.80;;
6642;SDS011;3357;48.050;7.800;2023-04-01T06:46:16;4.53;;;0.67;;
6642;SDS011;3357;48.050;7.800;2023-04-01T06:48:53;3.33;;;0.67;;
6642;SDS011;3357;48.050;7.800;2023-04-01T06:56:28;0.83;;;0.50;;
6642;SDS011;3357;48.050;7.800;2023-04-01T06:58:55;2.17;;;0.50;;
6642;SDS011;3357;48.050;7.800;2023-04-01T07:01:28;2.53;;;0.70;;
6642;SDS011;3357;48.050;7.800;2023-04-01T07:03:57;2.03;;;0.60;;
6642;SDS011;3357;48.050;7.800;2023-04-01T07:09:11;2.53;;;0.90;;
6642;SDS011;3357;48.050;7.800;2023-04-01T07:11:39;1.00;;;0.70;;
6642;SDS011;3357;48.050;7.800;2023-04-01T07:14:27;1.90;;;0.60;;
6642;SDS011;3357;48.050;7.800;2023-04-01T07:16:54;2.63;;;0.80;;
6642;SDS011;3357;48.050;7.800;2023-04-01T07:24:55;2.77;;;0.50;;
6642;SDS011;3357;48.050;7.800;2023-04-01T07:27:22;3.37;;;0.70;;
6642;SDS011;3357;48.050;7.800;2023-04-01T07:29:48;3.43;;;1.63;;
6642;SDS011;3357;48.050;7.800;2023-04-01T07:40:13;2.67;;;0.67;;
6642;SDS011;3357;48.050;7.800;2023-04-01T07:45:45;0.80;;;0.50;;
6642;SDS011;3357;48.050;7.800;2023-04-01T07:48:25;4.00;;;0.80;;
6642;SDS011;3357;48.050;7.800;2023-04-01T07:56:23;4.00;;;0.90;;
6642;SDS011;3357;48.050;7.800;2023-04-01T07:59:05;2.57;;;0.60;;
6642;SDS011;3357;48.050;7.800;2023-04-01T08:01:35;1.47;;;0.60;;
6642;SDS011;3357;48.050;7.800;2023-04-01T08:06:56;2.43;;;0.67;;
6642;SDS011;3357;48.050;7.800;2023-04-01T08:10:02;5.87;;;0.80;;
6642;SDS011;3357;48.050;7.800;2023-04-01T08:12:50;2.00;;;0.57;;
6642;SDS011;3357;48.050;7.800;2023-04-01T08:15:28;1.80;;;0.60;;
6642;SDS011;3357;48.050;7.800;2023-04-01T08:18:04;3.60;;;0.60;;
6642;SDS011;3357;48.050;7.800;2023-04-01T08:20:39;3.00;;;0.60;;
6642;SDS011;3357;48.050;7.800;2023-04-01T08:25:37;3.97;;;0.77;;
6642;SDS011;3357;48.050;7.800;2023-04-01T08:30:41;1.03;;;0.67;;
6642;SDS011;3357;48.050;7.800;2023-04-01T08:33:28;1.90;;;0.70;;
6642;SDS011;3357;48.050;7.800;2023-04-01T08:38:32;2.33;;;0.63;;
6642;SDS011;3357;48.050;7.800;2023-04-01T08:55:22;1.60;;;0.50;;
6642;SDS011;3357;48.050;7.800;2023-04-01T09:03:58;1.07;;;0.60;;
6642;SDS011;3357;48.050;7.800;2023-04-01T09:06:49;0.83;;;0.60;;
6642;SDS011;3357;48.050;7.800;2023-04-01T09:17:48;2.40;;;0.70;;
6642;SDS011;3357;48.050;7.800;2023-04-01T09:20:27;2.20;;;0.50;;
6642;SDS011;3357;48.050;7.800;2023-04-01T09:26:08;1.90;;;0.70;;
6642;SDS011;3357;48.050;7.800;2023-04-01T09:31:32;3.90;;;0.53;;
6642;SDS011;3357;48.050;7.800;2023-04-01T09:34:09;2.00;;;0.57;;
6642;SDS011;3357;48.050;7.800;2023-04-01T09:36:47;1.40;;;1.17;;
6642;SDS011;3357;48.050;7.800;2023-04-01T09:39:34;0.50;;;0.50;;
6642;SDS011;3357;48.050;7.800;2023-04-01T09:45:05;1.27;;;0.70;;
6642;SDS011;3357;48.050;7.800;2023-04-01T10:01:32;4.20;;;0.40;;
6642;SDS011;3357;48.050;7.800;2023-04-01T10:23:33;0.53;;;0.40;;
6642;SDS011;3357;48.050;7.800;2023-04-01T10:26:12;0.67;;;0.40;;
6642;SDS011;3357;48.050;7.800;2023-04-01T10:28:50;2.43;;;0.50;;
6642;SDS011;3357;48.050;7.800;2023-04-01T10:34:33;1.33;;;0.50;;
6642;SDS011;3357;48.050;7.800;2023-04-01T10:37:11;1.73;;;0.50;;
6642;SDS011;3357;48.050;7.800;2023-04-01T10:43:23;1.30;;;0.53;;
6642;SDS011;3357;48.050;7.800;2023-04-01T10:51:12;2.33;;;0.70;;
6642;SDS011;3357;48.050;7.800;2023-04-01T10:56:58;0.40;;;0.40;;
6642;SDS011;3357;48.050;7.800;2023-04-01T10:59:42;0.70;;;0.40;;
6642;SDS011;3357;48.050;7.800;2023-04-01T11:02:32;1.40;;;0.50;;
6642;SDS011;3357;48.050;7.800;2023-04-01T11:11:56;1.20;;;0.53;;
6642;SDS011;3357;48.050;7.800;2023-04-01T11:16:47;0.70;;;0.40;;
6642;SDS011;3357;48.050;7.800;2023-04-01T11:19:25;1.70;;;0.50;;
6642;SDS011;3357;48.050;7.800;2023-04-01T11:27:52;2.20;;;0.50;;
6642;SDS011;3357;48.050;7.800;2023-04-01T11:36:10;0.70;;;0.47;;
6642;SDS011;3357;48.050;7.800;2023-04-01T11:38:53;2.87;;;0.60;;
6642;SDS011;3357;48.050;7.800;2023-04-01T11:44:19;0.40;;;0.40;;
6642;SDS011;3357;48.050;7.800;2023-04-01T11:49:46;0.80;;;0.53;;
6642;SDS011;3357;48.050;7.800;2023-04-01T11:52:20;2.20;;;0.50;;
6642;SDS011;3357;48.050;7.800;2023-04-01T12:00:25;1.37;;;0.47;;
6642;SDS011;3357;48.050;7.800;2023-04-01T12:06:25;1.27;;;0.67;;
6642;SDS011;3357;48.050;7.800;2023-04-01T12:09:01;1.27;;;0.50;;
6642;SDS011;3357;48.050;7.800;2023-04-01T12:11:34;1.57;;;0.53;;
6642;SDS011;3357;48.050;7.800;2023-04-01T12:19:32;3.83;;;0.60;;
6642;SDS011;3357;48.050;7.800;2023-04-01T12:27:48;1.00;;;0.60;;
6642;SDS011;3357;48.050;7.800;2023-04-01T12:32:53;1.70;;;0.40;;
6642;SDS011;3357;48.050;7.800;2023-04-01T13:01:13;2.10;;;0.47;;
6642;SDS011;3357;48.050;7.800;2023-04-01T13:11:40;0.80;;;0.43;;
6642;SDS011;3357;48.050;7.800;2023-04-01T13:26:29;0.67;;;0.50;;
6642;SDS011;3357;48.050;7.800;2023-04-01T13:29:04;0.60;;;0.50;;
6642;SDS011;3357;48.050;7.800;2023-04-01T13:42:26;2.03;;;0.53;;
6642;SDS011;3357;48.050;7.800;2023-04-01T13:52:39;1.30;;;0.40;;
6642;SDS011;3357;48.050;7.800;2023-04-01T13:56:14;0.40;;;0.40;;
6642;SDS011;3357;48.050;7.800;2023-04-01T13:58:20;0.50;;;0.50;;
6642;SDS011;3357;48.050;7.800;2023-04-01T14:06:34;0.60;;;0.60;;
6642;SDS011;3357;48.050;7.800;2023-04-01T14:14:53;0.70;;;0.50;;
6642;SDS011;3357;48.050;7.800;2023-04-01T14:22:38;0.60;;;0.40;;
6642;SDS011;3357;48.050;7.800;2023-04-01T14:25:35;2.10;;;0.60;;
6642;SDS011;3357;48.050;7.800;2023-04-01T14:34:10;1.43;;;0.80;;
6642;SDS011;3357;48.050;7.800;2023-04-01T14:47:27;0.40;;;0.40;;
6642;SDS011;3357;48.050;7.800;2023-04-01T14:50:03;0.40;;;0.40;;
6642;SDS011;3357;48.050;7.800;2023-04-01T14:52:32;0.33;;;0.33;;
6642;SDS011;3357;48.050;7.800;2023-04-01T14:55:00;0.83;;;0.40;;
6642;SDS011;3357;48.050;7.800;2023-04-01T14:57:30;0.40;;;0.40;;
6642;SDS011;3357;48.050;7.800;2023-04-01T15:02:50;2.00;;;0.50;;
6642;SDS011;3357;48.050;7.800;2023-04-01T15:08:50;0.43;;;0.43;;
6642;SDS011;3357;48.050;7.800;2023-04-01T15:19:49;0.50;;;0.50;;
6642;SDS011;3357;48.050;7.800;2023-04-01T15:22:38;0.57;;;0.40;;
6642;SDS011;3357;48.050;7.800;2023-04-01T15:28:16;5.93;;;0.40;;
6642;SDS011;3357;48.050;7.800;2023-04-01T15:36:37;2.50;;;0.40;;
6642;SDS011;3357;48.050;7.800;2023-04-01T15:47:24;0.40;;;0.40;;
6642;SDS011;3357;48.050;7.800;2023-04-01T15:55:24;0.40;;;0.40;;
6642;SDS011;3357;48.050;7.800;2023-04-01T16:04:24;0.47;;;0.40;;
6642;SDS011;3357;48.050;7.800;2023-04-01T16:06:53;0.77;;;0.70;;
6642;SDS011;3357;48.050;7.800;2023-04-01T16:12:39;1.20;;;0.40;;
6642;SDS011;3357;48.050;7.800;2023-04-01T16:15:37;0.40;;;0.40;;
6642;SDS011;3357;48.050;7.800;2023-04-01T16:20:53;1.40;;;0.60;;
6642;SDS011;3357;48.050;7.800;2023-04-01T16:23:37;0.83;;;0.50;;
6642;SDS011;3357;48.050;7.800;2023-04-01T16:26:07;0.90;;;0.40;;
6642;SDS011;3357;48.050;7.800;2023-04-01T16:34:17;2.20;;;0.50;;
6642;SDS011;3357;48.050;7.800;2023-04-01T16:36:47;0.43;;;0.40;;
6642;SDS011;3357;48.050;7.800;2023-04-01T16:44:31;2.20;;;0.60;;
6642;SDS011;3357;48.050;7.800;2023-04-01T16:47:14;0.97;;;0.50;;
6642;SDS011;3357;48.050;7.800;2023-04-01T16:49:46;0.40;;;0.40;;
6642;SDS011;3357;48.050;7.800;2023-04-01T16:52:34;0.50;;;0.50;;
6642;SDS011;3357;48.050;7.800;2023-04-01T16:55:24;0.47;;;0.43;;
6642;SDS011;3357;48.050;7.800;2023-04-01T16:58:00;0.60;;;0.40;;
6642;SDS011;3357;48.050;7.800;2023-04-01T17:00:27;1.00;;;0.50;;
6642;SDS011;3357;48.050;7.800;2023-04-01T17:05:19;2.23;;;0.50;;
6642;SDS011;3357;48.050;7.800;2023-04-01T17:08:00;0.70;;;0.70;;
6642;SDS011;3357;48.050;7.800;2023-04-01T17:13:44;0.60;;;0.40;;
6642;SDS011;3357;48.050;7.800;2023-04-01T17:22:33;0.50;;;0.50;;
6642;SDS011;3357;48.050;7.800;2023-04-01T17:25:12;2.87;;;0.53;;
6642;SDS011;3357;48.050;7.800;2023-04-01T17:27:49;0.67;;;0.60;;
6642;SDS011;3357;48.050;7.800;2023-04-01T17:33:31;0.50;;;0.50;;
6642;SDS011;3357;48.050;7.800;2023-04-01T17:36:08;0.63;;;0.50;;
6642;SDS011;3357;48.050;7.800;2023-04-01T17:41:25;0.60;;;0.60;;
6642;SDS011;3357;48.050;7.800;2023-04-01T17:44:05;1.60;;;0.90;;
6642;SDS011;3357;48.050;7.800;2023-04-01T17:58:20;1.90;;;0.70;;
6642;SDS011;3357;48.050;7.800;2023-04-01T18:03:45;1.63;;;0.50;;
6642;SDS011;3357;48.050;7.800;2023-04-01T18:09:14;0.93;;;0.60;;
6642;SDS011;3357;48.050;7.800;2023-04-01T18:17:25;1.80;;;0.60;;
6642;SDS011;3357;48.050;7.800;2023-04-01T18:22:32;1.17;;;0.40;;
6642;SDS011;3357;48.050;7.800;2023-04-01T18:25:21;0.30;;;0.30;;
6642;SDS011;3357;48.050;7.800;2023-04-01T18:30:31;0.40;;;0.40;;
6642;SDS011;3357;48.050;7.800;2023-04-01T18:38:57;1.10;;;0.50;;
6642;SDS011;3357;48.050;7.800;2023-04-01T18:41:32;1.83;;;0.60;;
6642;SDS011;3357;48.050;7.800;2023-04-01T18:44:15;0.50;;;0.50;;
6642;SDS011;3357;48.050;7.800;2023-04-01T18:46:57;0.60;;;0.60;;
6642;SDS011;3357;48.050;7.800;2023-04-01T18:49:29;0.97;;;0.50;;
6642;SDS011;3357;48.050;7.800;2023-04-01T18:51:59;0.77;;;0.77;;
6642;SDS011;3357;48.050;7.800;2023-04-01T18:54:39;1.13;;;0.90;;
6642;SDS011;3357;48.050;7.800;2023-04-01T18:57:25;3.03;;;0.70;;
6642;SDS011;3357;48.050;7.800;2023-04-01T18:59:53;1.13;;;0.60;;
6642;SDS011;3357;48.050;7.800;2023-04-01T19:05:12;2.70;;;0.90;;
6642;SDS011;3357;48.050;7.800;2023-04-01T19:10:26;0.60;;;0.60;;
6642;SDS011;3357;48.050;7.800;2023-04-01T19:19:15;1.43;;;0.60;;
6642;SDS011;3357;48.050;7.800;2023-04-01T19:35:29;0.77;;;0.70;;
6642;SDS011;3357;48.050;7.800;2023-04-01T19:37:58;0.53;;;0.50;;
6642;SDS011;3357;48.050;7.800;2023-04-01T20:04:37;0.90;;;0.50;;
6642;SDS011;3357;48.050;7.800;2023-04-01T20:07:10;0.40;;;0.40;;
6642;SDS011;3357;48.050;7.800;2023-04-01T20:14:59;0.40;;;0.40;;
6642;SDS011;3357;48.050;7.800;2023-04-01T20:20:07;0.40;;;0.40;;
6642;SDS011;3357;48.050;7.800;2023-04-01T20:25:17;0.60;;;0.60;;
6642;SDS011;3357;48.050;7.800;2023-04-01T20:30:30;0.60;;;0.60;;
6642;SDS011;3357;48.050;7.800;2023-04-01T20:33:08;0.77;;;0.77;;
6642;SDS011;3357;48.050;7.800;2023-04-01T20:44:42;1.17;;;0.50;;
6642;SDS011;3357;48.050;7.800;2023-04-01T20:47:17;0.50;;;0.50;;
6642;SDS011;3357;48.050;7.800;2023-04-01T20:53:04;0.83;;;0.43;;
6642;SDS011;3357;48.050;7.800;2023-04-01T20:55:52;4.10;;;0.50;;
6642;SDS011;3357;48.050;7.800;2023-04-01T21:09:20;0.80;;;0.80;;
6642;SDS011;3357;48.050;7.800;2023-04-01T21:17:30;1.87;;;0.70;;
6642;SDS011;3357;48.050;7.800;2023-04-01T21:23:04;1.57;;;0.70;;
6642;SDS011;3357;48.050;7.800;2023-04-01T21:25:45;0.67;;;0.60;;
6642;SDS011;3357;48.050;7.800;2023-04-01T21:28:58;4.33;;;0.87;;
6642;SDS011;3357;48.050;7.800;2023-04-01T21:36:55;1.73;;;1.27;;
6642;SDS011;3357;48.050;7.800;2023-04-01T21:44:50;2.57;;;0.80;;
6642;SDS011;3357;48.050;7.800;2023-04-01T22:09:57;1.33;;;0.70;;
6642;SDS011;3357;48.050;7.800;2023-04-01T22:12:38;0.70;;;0.60;;
6642;SDS011;3357;48.050;7.800;2023-04-01T22:15:16;2.60;;;0.77;;
6642;SDS011;3357;48.050;7.800;2023-04-01T22:18:06;1.00;;;0.70;;
6642;SDS011;3357;48.050;7.800;2023-04-01T22:20:47;0.60;;;0.50;;
6642;SDS011;3357;48.050;7.800;2023-04-01T22:23:20;0.77;;;0.60;;
6642;SDS011;3357;48.050;7.800;2023-04-01T22:25:55;0.60;;;0.60;;
6642;SDS011;3357;48.050;7.800;2023-04-01T22:31:31;1.83;;;0.70;;
6642;SDS011;3357;48.050;7.800;2023-04-01T22:34:10;2.40;;;0.70;;
6642;SDS011;3357;48.050;7.800;2023-04-01T22:36:58;0.77;;;0.77;;
6642;SDS011;3357;48.050;7.800;2023-04-01T22:42:22;0.60;;;0.60;;
6642;SDS011;3357;48.050;7.800;2023-04-01T22:47:44;0.70;;;0.70;;
6642;SDS011;3357;48.050;7.800;2023-04-01T22:50:25;1.07;;;0.97;;
6642;SDS011;3357;48.050;7.800;2023-04-01T22:53:00;1.07;;;0.60;;
6642;SDS011;3357;48.050;7.800;2023-04-01T22:55:30;0.60;;;0.60;;
6642;SDS011;3357;48.050;7.800;2023-04-01T22:58:06;0.47;;;0.47;;
6642;SDS011;3357;48.050;7.800;2023-04-01T23:00:52;2.10;;;0.70;;
6642;SDS011;3357;48.050;7.800;2023-04-01T23:03:21;0.87;;;0.60;;
6642;SDS011;3357;48.050;7.800;2023-04-01T23:05:51;1.57;;;0.80;;
6642;SDS011;3357;48.050;7.800;2023-04-01T23:08:39;0.40;;;0.40;;
6642;SDS011;3357;48.050;7.800;2023-04-01T23:11:07;3.03;;;0.60;;
6642;SDS011;3357;48.050;7.800;2023-04-01T23:13:35;4.40;;;0.60;;
6642;SDS011;3357;48.050;7.800;2023-04-01T23:16:06;1.33;;;0.57;;
6642;SDS011;3357;48.050;7.800;2023-04-01T23:18:37;0.50;;;0.50;;
6642;SDS011;3357;48.050;7.800;2023-04-01T23:21:32;0.40;;;0.40;;
6642;SDS011;3357;48.050;7.800;2023-04-01T23:24:21;0.87;;;0.60;;
6642;SDS011;3357;48.050;7.800;2023-04-01T23:26:55;0.80;;;0.50;;
6642;SDS011;3357;48.050;7.800;2023-04-01T23:29:24;0.87;;;0.50;;
6642;SDS011;3357;48.050;7.800;2023-04-01T23:32:00;0.80;;;0.60;;
6642;SDS011;3357;48.050;7.800;2023-04-01T23:34:30;0.80;;;0.50;;
6642;SDS011;3357;48.050;7.800;2023-04-01T23:36:58;0.50;;;0.50;;
6642;SDS011;3357;48.050;7.800;2023-04-01T23:39:35;5.07;;;0.60;;
6642;SDS011;3357;48.050;7.800;2023-04-01T23:42:06;2.63;;;0.90;;
6642;SDS011;3357;48.050;7.800;2023-04-01T23:44:36;0.50;;;0.50;;
6642;SDS011;3357;48.050;7.800;2023-04-01T23:47:02;0.40;;;0.40;;
6642;SDS011;3357;48.050;7.800;2023-04-01T23:49:37;3.03;;;0.60;;
6642;SDS011;3357;48.050;7.800;2023-04-01T23:52:24;1.43;;;0.60;;
6642;SDS011;3357;48.050;7.800;2023-04-01T23:54:58;2.20;;;0.70;;
6642;SDS011;3357;48.050;7.800;2023-04-01T23:57:32;0.80;;;0.50;;
